KULS

Details ICAO KULS
Name ULYSSES
Region United States
Timezone America/Chicago (UTC-5.0)
Plans Departing 1
Arriving 1
Stats Elevation 3,067 ft / 935 m (AMSL)
Location 37.603406° -101.373533°
Runways 2
Magnetic Variation 6.046° E
Sunrise 2018-05-24 11:31:00 UTC / 2018-05-24 06:31:00 Local
Sunset 2018-05-25 01:56:35 UTC / 2018-05-24 20:56:35 Local
Advertisement - Login to hide

Runways

ID Width Length Bearing (true) Bearing (mag) Surface Threshold Offset Overrun Length
12 60 ft / 18 m 4,598 ft / 1,401 m 129.77° 123.72° Concrete 0 ft / 0 m 0 ft / 0 m
17 100 ft / 30 m 6,012 ft / 1,833 m 179.57° 173.52° Concrete 0 ft / 0 m 0 ft / 0 m
30 60 ft / 18 m 4,598 ft / 1,401 m 309.78° 303.73° Concrete 0 ft / 0 m 0 ft / 0 m
35 100 ft / 30 m 6,012 ft / 1,833 m 359.57° 353.52° Concrete 0 ft / 0 m 0 ft / 0 m

Map

Weather


0- 5 10 15 20 25 30 35+ Temperature / ° C

Clouds and Precipitation
Forecast for 2018-05-25 00:00 UTC. Updated 3 hours ago

Ground ~20,000 ft ~40,000 ft Winds

METAR

KULS 250155Z AUTO 10011G18KT 10SM CLR 24/06 A2994 RMK AO2 LTG DSNT ALQS

TAF

Not found

Frequencies

Recorded 118.95 MHz AWOS 3
Unicom 122.80 MHz CTAF/UNICOM
Warning: Do not use this data for real-world aviation or navigation. No guarantee of current accuracy is given.